sensor_id;sensor_type;location;lat;lon;timestamp;pressure;altitude;pressure_sealevel;temperature;humidity
29909;BME280;36247;51.952;6.146;2023-11-22T00:00:07;102661.19;;;3.55;100.00
29909;BME280;36247;51.952;6.146;2023-11-22T00:02:33;102670.09;;;3.57;100.00
29909;BME280;36247;51.952;6.146;2023-11-22T00:04:59;102658.56;;;3.55;100.00
29909;BME280;36247;51.952;6.146;2023-11-22T00:07:25;102652.88;;;3.49;100.00
29909;BME280;36247;51.952;6.146;2023-11-22T00:09:54;102649.59;;;3.40;100.00
29909;BME280;36247;51.952;6.146;2023-11-22T00:12:19;102648.56;;;3.49;100.00
29909;BME280;36247;51.952;6.146;2023-11-22T00:14:45;102654.50;;;3.47;100.00
29909;BME280;36247;51.952;6.146;2023-11-22T00:17:12;102644.13;;;3.48;100.00
29909;BME280;36247;51.952;6.146;2023-11-22T00:19:37;102646.75;;;3.48;100.00
29909;BME280;36247;51.952;6.146;2023-11-22T00:22:04;102652.00;;;3.37;100.00
29909;BME280;36247;51.952;6.146;2023-11-22T00:24:37;102658.13;;;3.49;100.00
29909;BME280;36247;51.952;6.146;2023-11-22T00:27:02;102659.09;;;3.38;100.00
29909;BME280;36247;51.952;6.146;2023-11-22T00:29:28;102665.44;;;3.41;100.00
29909;BME280;36247;51.952;6.146;2023-11-22T00:31:53;102676.59;;;3.39;100.00
29909;BME280;36247;51.952;6.146;2023-11-22T00:34:19;102672.41;;;3.29;100.00
29909;BME280;36247;51.952;6.146;2023-11-22T00:36:44;102679.22;;;3.27;100.00
29909;BME280;36247;51.952;6.146;2023-11-22T00:39:10;102679.44;;;3.30;100.00
29909;BME280;36247;51.952;6.146;2023-11-22T00:41:39;102679.56;;;3.43;100.00
29909;BME280;36247;51.952;6.146;2023-11-22T00:44:05;102682.88;;;3.41;100.00
29909;BME280;36247;51.952;6.146;2023-11-22T00:46:34;102675.03;;;3.41;100.00
29909;BME280;36247;51.952;6.146;2023-11-22T00:48:59;102683.00;;;3.30;100.00
29909;BME280;36247;51.952;6.146;2023-11-22T00:51:25;102679.72;;;3.33;100.00
29909;BME280;36247;51.952;6.146;2023-11-22T00:53:52;102680.38;;;3.42;100.00
29909;BME280;36247;51.952;6.146;2023-11-22T00:56:17;102682.78;;;3.15;100.00
29909;BME280;36247;51.952;6.146;2023-11-22T00:58:43;102693.59;;;3.32;100.00
29909;BME280;36247;51.952;6.146;2023-11-22T01:01:09;102702.47;;;3.22;100.00
29909;BME280;36247;51.952;6.146;2023-11-22T01:03:34;102702.91;;;3.28;100.00
29909;BME280;36247;51.952;6.146;2023-11-22T01:06:01;102710.94;;;3.18;100.00
29909;BME280;36247;51.952;6.146;2023-11-22T01:08:27;102710.94;;;3.18;100.00
29909;BME280;36247;51.952;6.146;2023-11-22T01:10:52;102704.41;;;3.13;100.00
29909;BME280;36247;51.952;6.146;2023-11-22T01:13:18;102720.47;;;3.06;100.00
29909;BME280;36247;51.952;6.146;2023-11-22T01:15:44;102717.97;;;3.07;100.00
29909;BME280;36247;51.952;6.146;2023-11-22T01:18:12;102728.31;;;3.06;100.00
29909;BME280;36247;51.952;6.146;2023-11-22T01:20:38;102730.03;;;3.05;100.00
29909;BME280;36247;51.952;6.146;2023-11-22T01:23:03;102735.28;;;2.93;100.00
29909;BME280;36247;51.952;6.146;2023-11-22T01:25:29;102731.53;;;2.90;100.00
29909;BME280;36247;51.952;6.146;2023-11-22T01:27:54;102739.00;;;2.97;100.00
29909;BME280;36247;51.952;6.146;2023-11-22T01:30:20;102744.63;;;3.02;100.00
29909;BME280;36247;51.952;6.146;2023-11-22T01:32:45;102748.94;;;3.01;100.00
29909;BME280;36247;51.952;6.146;2023-11-22T01:35:14;102748.25;;;3.04;100.00
29909;BME280;36247;51.952;6.146;2023-11-22T01:37:41;102749.50;;;3.09;100.00
29909;BME280;36247;51.952;6.146;2023-11-22T01:40:08;102760.06;;;2.98;100.00
29909;BME280;36247;51.952;6.146;2023-11-22T01:42:34;102765.56;;;2.90;100.00
29909;BME280;36247;51.952;6.146;2023-11-22T01:45:02;102754.84;;;2.87;100.00
29909;BME280;36247;51.952;6.146;2023-11-22T01:47:28;102746.97;;;2.98;100.00
29909;BME280;36247;51.952;6.146;2023-11-22T01:49:54;102764.72;;;2.79;100.00
29909;BME280;36247;51.952;6.146;2023-11-22T01:52:20;102771.56;;;2.89;100.00
29909;BME280;36247;51.952;6.146;2023-11-22T01:54:45;102763.16;;;2.81;100.00
29909;BME280;36247;51.952;6.146;2023-11-22T01:57:12;102755.06;;;2.78;100.00
29909;BME280;36247;51.952;6.146;2023-11-22T01:59:38;102756.72;;;2.65;100.00
29909;BME280;36247;51.952;6.146;2023-11-22T02:02:05;102758.66;;;2.68;100.00
29909;BME280;36247;51.952;6.146;2023-11-22T02:04:30;102767.09;;;2.76;100.00
29909;BME280;36247;51.952;6.146;2023-11-22T02:06:56;102753.69;;;2.83;100.00
29909;BME280;36247;51.952;6.146;2023-11-22T02:09:24;102758.00;;;2.71;100.00
29909;BME280;36247;51.952;6.146;2023-11-22T02:11:50;102749.09;;;2.57;100.00
29909;BME280;36247;51.952;6.146;2023-11-22T02:14:15;102745.13;;;2.62;100.00
29909;BME280;36247;51.952;6.146;2023-11-22T02:16:41;102747.31;;;2.68;100.00
29909;BME280;36247;51.952;6.146;2023-11-22T02:19:14;102750.38;;;2.74;100.00
29909;BME280;36247;51.952;6.146;2023-11-22T02:21:41;102749.47;;;2.73;100.00
29909;BME280;36247;51.952;6.146;2023-11-22T02:24:07;102755.16;;;2.68;100.00
29909;BME280;36247;51.952;6.146;2023-11-22T02:26:33;102756.56;;;2.52;100.00
29909;BME280;36247;51.952;6.146;2023-11-22T02:28:59;102765.03;;;2.60;100.00
29909;BME280;36247;51.952;6.146;2023-11-22T02:31:25;102765.78;;;2.47;100.00
29909;BME280;36247;51.952;6.146;2023-11-22T02:33:53;102765.94;;;2.60;100.00
29909;BME280;36247;51.952;6.146;2023-11-22T02:36:21;102762.69;;;2.41;100.00
29909;BME280;36247;51.952;6.146;2023-11-22T02:38:48;102771.72;;;2.56;100.00
29909;BME280;36247;51.952;6.146;2023-11-22T02:41:14;102773.97;;;2.52;100.00
29909;BME280;36247;51.952;6.146;2023-11-22T02:43:39;102777.50;;;2.52;100.00
29909;BME280;36247;51.952;6.146;2023-11-22T02:46:08;102772.59;;;2.45;100.00
29909;BME280;36247;51.952;6.146;2023-11-22T02:48:33;102777.94;;;2.46;100.00
29909;BME280;36247;51.952;6.146;2023-11-22T02:50:59;102778.38;;;2.41;100.00
29909;BME280;36247;51.952;6.146;2023-11-22T02:53:25;102773.69;;;2.37;100.00
29909;BME280;36247;51.952;6.146;2023-11-22T02:55:50;102775.88;;;2.42;100.00
29909;BME280;36247;51.952;6.146;2023-11-22T02:58:16;102775.72;;;2.29;100.00
29909;BME280;36247;51.952;6.146;2023-11-22T03:00:42;102770.78;;;2.22;100.00
29909;BME280;36247;51.952;6.146;2023-11-22T03:03:08;102770.59;;;2.31;100.00
29909;BME280;36247;51.952;6.146;2023-11-22T03:05:36;102771.69;;;2.22;100.00
29909;BME280;36247;51.952;6.146;2023-11-22T03:08:03;102766.34;;;2.21;100.00
29909;BME280;36247;51.952;6.146;2023-11-22T03:10:29;102774.13;;;2.09;100.00
29909;BME280;36247;51.952;6.146;2023-11-22T03:12:55;102770.44;;;2.17;100.00
29909;BME280;36247;51.952;6.146;2023-11-22T03:15:21;102778.16;;;2.16;100.00
29909;BME280;36247;51.952;6.146;2023-11-22T03:17:46;102787.28;;;1.99;100.00
29909;BME280;36247;51.952;6.146;2023-11-22T03:20:14;102778.88;;;2.03;100.00
29909;BME280;36247;51.952;6.146;2023-11-22T03:22:41;102767.34;;;2.11;100.00
29909;BME280;36247;51.952;6.146;2023-11-22T03:25:10;102769.41;;;2.15;100.00
29909;BME280;36247;51.952;6.146;2023-11-22T03:27:37;102773.03;;;2.17;100.00
29909;BME280;36247;51.952;6.146;2023-11-22T03:30:04;102762.81;;;2.20;100.00
29909;BME280;36247;51.952;6.146;2023-11-22T03:32:30;102777.66;;;2.09;100.00
29909;BME280;36247;51.952;6.146;2023-11-22T03:34:55;102772.25;;;1.96;100.00
29909;BME280;36247;51.952;6.146;2023-11-22T03:37:23;102769.75;;;1.98;100.00
29909;BME280;36247;51.952;6.146;2023-11-22T03:39:48;102784.03;;;1.91;100.00
29909;BME280;36247;51.952;6.146;2023-11-22T03:42:15;102795.38;;;2.02;100.00
29909;BME280;36247;51.952;6.146;2023-11-22T03:44:44;102810.47;;;2.06;100.00
29909;BME280;36247;51.952;6.146;2023-11-22T03:47:11;102815.47;;;2.03;100.00
29909;BME280;36247;51.952;6.146;2023-11-22T03:49:41;102823.31;;;2.03;100.00
29909;BME280;36247;51.952;6.146;2023-11-22T03:52:10;102835.13;;;1.98;100.00
29909;BME280;36247;51.952;6.146;2023-11-22T03:54:37;102830.88;;;2.10;100.00
29909;BME280;36247;51.952;6.146;2023-11-22T03:57:03;102840.22;;;1.96;100.00
29909;BME280;36247;51.952;6.146;2023-11-22T03:59:29;102852.22;;;1.94;100.00
29909;BME280;36247;51.952;6.146;2023-11-22T04:01:55;102858.81;;;1.89;100.00
29909;BME280;36247;51.952;6.146;2023-11-22T04:04:21;102868.09;;;1.85;100.00
29909;BME280;36247;51.952;6.146;2023-11-22T04:06:47;102874.25;;;1.75;100.00
29909;BME280;36247;51.952;6.146;2023-11-22T04:09:12;102881.56;;;1.80;100.00
29909;BME280;36247;51.952;6.146;2023-11-22T04:11:38;102886.94;;;1.81;100.00
29909;BME280;36247;51.952;6.146;2023-11-22T04:14:04;102887.09;;;1.72;100.00
29909;BME280;36247;51.952;6.146;2023-11-22T04:16:30;102878.38;;;1.62;100.00
29909;BME280;36247;51.952;6.146;2023-11-22T04:18:55;102880.44;;;1.66;100.00
29909;BME280;36247;51.952;6.146;2023-11-22T04:21:21;102880.28;;;1.74;100.00
29909;BME280;36247;51.952;6.146;2023-11-22T04:23:47;102873.03;;;1.92;100.00
29909;BME280;36247;51.952;6.146;2023-11-22T04:26:14;102877.22;;;1.90;100.00
29909;BME280;36247;51.952;6.146;2023-11-22T04:28:39;102872.41;;;1.85;100.00
29909;BME280;36247;51.952;6.146;2023-11-22T04:31:05;102875.84;;;1.73;100.00
29909;BME280;36247;51.952;6.146;2023-11-22T04:33:30;102870.78;;;1.65;100.00
29909;BME280;36247;51.952;6.146;2023-11-22T04:35:56;102880.97;;;1.62;100.00
29909;BME280;36247;51.952;6.146;2023-11-22T04:38:22;102882.28;;;1.56;100.00
29909;BME280;36247;51.952;6.146;2023-11-22T04:40:47;102886.84;;;1.59;100.00
29909;BME280;36247;51.952;6.146;2023-11-22T04:43:13;102884.13;;;1.57;100.00
29909;BME280;36247;51.952;6.146;2023-11-22T04:45:39;102891.69;;;1.54;100.00
29909;BME280;36247;51.952;6.146;2023-11-22T04:48:05;102881.00;;;1.51;100.00
29909;BME280;36247;51.952;6.146;2023-11-22T04:50:32;102875.13;;;1.44;100.00
29909;BME280;36247;51.952;6.146;2023-11-22T04:52:57;102880.63;;;1.47;100.00
29909;BME280;36247;51.952;6.146;2023-11-22T04:55:23;102881.25;;;1.44;100.00
29909;BME280;36247;51.952;6.146;2023-11-22T04:57:49;102880.50;;;1.35;100.00
29909;BME280;36247;51.952;6.146;2023-11-22T05:00:15;102882.97;;;1.44;100.00
29909;BME280;36247;51.952;6.146;2023-11-22T05:02:41;102890.00;;;1.45;100.00
29909;BME280;36247;51.952;6.146;2023-11-22T05:05:07;102880.47;;;1.45;100.00
29909;BME280;36247;51.952;6.146;2023-11-22T05:07:36;102894.31;;;1.44;100.00
29909;BME280;36247;51.952;6.146;2023-11-22T05:10:03;102889.22;;;1.35;100.00
29909;BME280;36247;51.952;6.146;2023-11-22T05:12:29;102889.38;;;1.27;100.00
29909;BME280;36247;51.952;6.146;2023-11-22T05:14:54;102889.63;;;1.19;100.00
29909;BME280;36247;51.952;6.146;2023-11-22T05:17:20;102883.38;;;1.17;100.00
29909;BME280;36247;51.952;6.146;2023-11-22T05:19:45;102892.22;;;1.19;100.00
29909;BME280;36247;51.952;6.146;2023-11-22T05:22:11;102881.00;;;1.20;100.00
29909;BME280;36247;51.952;6.146;2023-11-22T05:24:37;102885.47;;;1.21;100.00
29909;BME280;36247;51.952;6.146;2023-11-22T05:27:07;102882.84;;;1.21;100.00
29909;BME280;36247;51.952;6.146;2023-11-22T05:29:33;102874.38;;;1.24;100.00
29909;BME280;36247;51.952;6.146;2023-11-22T05:31:59;102876.31;;;1.27;100.00
29909;BME280;36247;51.952;6.146;2023-11-22T05:34:25;102877.09;;;1.36;100.00
29909;BME280;36247;51.952;6.146;2023-11-22T05:36:52;102873.94;;;1.30;100.00
29909;BME280;36247;51.952;6.146;2023-11-22T05:39:18;102866.66;;;1.26;100.00
29909;BME280;36247;51.952;6.146;2023-11-22T05:41:44;102869.81;;;1.21;100.00
29909;BME280;36247;51.952;6.146;2023-11-22T05:44:09;102875.28;;;1.25;100.00
29909;BME280;36247;51.952;6.146;2023-11-22T05:46:35;102884.66;;;1.33;100.00
29909;BME280;36247;51.952;6.146;2023-11-22T05:49:01;102886.22;;;1.31;100.00
29909;BME280;36247;51.952;6.146;2023-11-22T05:51:27;102878.78;;;1.35;100.00
29909;BME280;36247;51.952;6.146;2023-11-22T05:53:52;102889.63;;;1.40;100.00
29909;BME280;36247;51.952;6.146;2023-11-22T05:56:18;102888.31;;;1.35;100.00
29909;BME280;36247;51.952;6.146;2023-11-22T05:58:44;102878.13;;;1.38;100.00
29909;BME280;36247;51.952;6.146;2023-11-22T06:01:10;102878.00;;;1.47;100.00
29909;BME280;36247;51.952;6.146;2023-11-22T06:03:38;102898.91;;;1.47;100.00
29909;BME280;36247;51.952;6.146;2023-11-22T06:06:05;102899.78;;;1.47;100.00
29909;BME280;36247;51.952;6.146;2023-11-22T06:08:30;102917.31;;;1.48;100.00
29909;BME280;36247;51.952;6.146;2023-11-22T06:10:56;102913.38;;;1.43;100.00
29909;BME280;36247;51.952;6.146;2023-11-22T06:13:23;102918.34;;;1.40;100.00
29909;BME280;36247;51.952;6.146;2023-11-22T06:15:49;102915.22;;;1.44;100.00
29909;BME280;36247;51.952;6.146;2023-11-22T06:18:15;102922.03;;;1.42;100.00
29909;BME280;36247;51.952;6.146;2023-11-22T06:20:45;102922.78;;;1.41;100.00
29909;BME280;36247;51.952;6.146;2023-11-22T06:23:12;102934.41;;;1.34;100.00
29909;BME280;36247;51.952;6.146;2023-11-22T06:25:38;102928.00;;;1.51;100.00
29909;BME280;36247;51.952;6.146;2023-11-22T06:28:07;102920.69;;;1.47;100.00
29909;BME280;36247;51.952;6.146;2023-11-22T06:30:32;102931.13;;;1.68;100.00
29909;BME280;36247;51.952;6.146;2023-11-22T06:32:58;102922.25;;;1.66;100.00
29909;BME280;36247;51.952;6.146;2023-11-22T06:35:23;102930.34;;;1.69;100.00
29909;BME280;36247;51.952;6.146;2023-11-22T06:37:49;102934.69;;;1.37;100.00
29909;BME280;36247;51.952;6.146;2023-11-22T06:40:14;102935.56;;;1.69;100.00
29909;BME280;36247;51.952;6.146;2023-11-22T06:42:42;102936.09;;;1.65;100.00
29909;BME280;36247;51.952;6.146;2023-11-22T06:45:08;102940.81;;;1.48;100.00
29909;BME280;36247;51.952;6.146;2023-11-22T06:47:42;102959.72;;;1.76;100.00
29909;BME280;36247;51.952;6.146;2023-11-22T06:50:09;102970.31;;;1.57;100.00
29909;BME280;36247;51.952;6.146;2023-11-22T06:52:38;102980.53;;;1.54;100.00
29909;BME280;36247;51.952;6.146;2023-11-22T06:55:07;102984.28;;;1.48;100.00
29909;BME280;36247;51.952;6.146;2023-11-22T06:57:34;102988.34;;;1.54;100.00
29909;BME280;36247;51.952;6.146;2023-11-22T07:00:00;102977.78;;;1.53;100.00
29909;BME280;36247;51.952;6.146;2023-11-22T07:02:30;102967.31;;;1.63;100.00
29909;BME280;36247;51.952;6.146;2023-11-22T07:04:56;102972.81;;;1.66;100.00
29909;BME280;36247;51.952;6.146;2023-11-22T07:07:21;102955.28;;;1.75;100.00
29909;BME280;36247;51.952;6.146;2023-11-22T07:09:47;102956.97;;;1.85;100.00
29909;BME280;36247;51.952;6.146;2023-11-22T07:12:14;102949.13;;;1.85;100.00
29909;BME280;36247;51.952;6.146;2023-11-22T07:14:41;102941.03;;;1.82;100.00
29909;BME280;36247;51.952;6.146;2023-11-22T07:17:09;102945.19;;;1.80;100.00
29909;BME280;36247;51.952;6.146;2023-11-22T07:19:36;102949.00;;;1.84;100.00
29909;BME280;36247;51.952;6.146;2023-11-22T07:22:06;102947.25;;;2.05;100.00
29909;BME280;36247;51.952;6.146;2023-11-22T07:24:48;102940.09;;;1.92;100.00
29909;BME280;36247;51.952;6.146;2023-11-22T07:27:19;102942.78;;;2.14;100.00
29909;BME280;36247;51.952;6.146;2023-11-22T07:29:45;102933.63;;;2.09;100.00
29909;BME280;36247;51.952;6.146;2023-11-22T07:32:11;102931.44;;;2.03;100.00
29909;BME280;36247;51.952;6.146;2023-11-22T07:34:39;102941.78;;;1.91;100.00
29909;BME280;36247;51.952;6.146;2023-11-22T07:37:05;102942.84;;;1.83;100.00
29909;BME280;36247;51.952;6.146;2023-11-22T07:39:33;102940.81;;;1.69;100.00
29909;BME280;36247;51.952;6.146;2023-11-22T07:41:58;102930.13;;;1.98;100.00
29909;BME280;36247;51.952;6.146;2023-11-22T07:44:24;102931.88;;;1.87;100.00
29909;BME280;36247;51.952;6.146;2023-11-22T07:46:50;102946.16;;;2.13;100.00
29909;BME280;36247;51.952;6.146;2023-11-22T07:49:21;102959.00;;;2.10;100.00
29909;BME280;36247;51.952;6.146;2023-11-22T07:51:48;102959.50;;;2.06;100.00
29909;BME280;36247;51.952;6.146;2023-11-22T07:54:20;102969.13;;;2.27;100.00
29909;BME280;36247;51.952;6.146;2023-11-22T07:56:51;102975.31;;;2.50;100.00
29909;BME280;36247;51.952;6.146;2023-11-22T07:59:18;102975.78;;;2.34;100.00
29909;BME280;36247;51.952;6.146;2023-11-22T08:01:45;102980.06;;;2.44;100.00
29909;BME280;36247;51.952;6.146;2023-11-22T08:04:12;102967.38;;;2.71;100.00
29909;BME280;36247;51.952;6.146;2023-11-22T08:06:38;102970.97;;;2.83;100.00
29909;BME280;36247;51.952;6.146;2023-11-22T08:09:03;102962.41;;;2.96;100.00
29909;BME280;36247;51.952;6.146;2023-11-22T08:11:30;102966.16;;;2.99;100.00
29909;BME280;36247;51.952;6.146;2023-11-22T08:13:59;102966.41;;;3.03;100.00
29909;BME280;36247;51.952;6.146;2023-11-22T08:16:25;102962.03;;;2.91;100.00
29909;BME280;36247;51.952;6.146;2023-11-22T08:18:52;102971.75;;;3.04;100.00
29909;BME280;36247;51.952;6.146;2023-11-22T08:21:18;102992.63;;;2.92;100.00
29909;BME280;36247;51.952;6.146;2023-11-22T08:23:47;102996.72;;;3.11;100.00
29909;BME280;36247;51.952;6.146;2023-11-22T08:26:12;102992.88;;;3.17;100.00
29909;BME280;36247;51.952;6.146;2023-11-22T08:28:39;102990.69;;;3.12;100.00
29909;BME280;36247;51.952;6.146;2023-11-22T08:31:05;102996.16;;;3.15;100.00
29909;BME280;36247;51.952;6.146;2023-11-22T08:33:37;102989.00;;;3.12;100.00
29909;BME280;36247;51.952;6.146;2023-11-22T08:36:07;102998.66;;;3.13;100.00
29909;BME280;36247;51.952;6.146;2023-11-22T08:38:35;103012.88;;;3.27;100.00
29909;BME280;36247;51.952;6.146;2023-11-22T08:41:04;103011.94;;;3.27;100.00
29909;BME280;36247;51.952;6.146;2023-11-22T08:43:33;103024.72;;;3.34;100.00
29909;BME280;36247;51.952;6.146;2023-11-22T08:46:02;103024.25;;;3.62;100.00
29909;BME280;36247;51.952;6.146;2023-11-22T08:48:32;103017.88;;;3.24;100.00
29909;BME280;36247;51.952;6.146;2023-11-22T08:50:58;103010.84;;;3.69;100.00
29909;BME280;36247;51.952;6.146;2023-11-22T08:53:24;102998.94;;;3.62;100.00
29909;BME280;36247;51.952;6.146;2023-11-22T08:55:50;102995.94;;;3.46;100.00
29909;BME280;36247;51.952;6.146;2023-11-22T08:58:15;103006.06;;;3.41;100.00
29909;BME280;36247;51.952;6.146;2023-11-22T09:00:42;103015.72;;;3.76;100.00
29909;BME280;36247;51.952;6.146;2023-11-22T09:03:09;103017.06;;;3.59;100.00
29909;BME280;36247;51.952;6.146;2023-11-22T09:05:39;103017.09;;;3.71;100.00
29909;BME280;36247;51.952;6.146;2023-11-22T09:08:05;103012.91;;;3.97;100.00
29909;BME280;36247;51.952;6.146;2023-11-22T09:10:30;103012.94;;;4.09;100.00
29909;BME280;36247;51.952;6.146;2023-11-22T09:12:56;103011.69;;;4.03;100.00
29909;BME280;36247;51.952;6.146;2023-11-22T09:15:24;103014.88;;;4.23;100.00
29909;BME280;36247;51.952;6.146;2023-11-22T09:17:52;103006.13;;;4.22;100.00
29909;BME280;36247;51.952;6.146;2023-11-22T09:20:19;103005.41;;;4.49;100.00
29909;BME280;36247;51.952;6.146;2023-11-22T09:22:53;103004.72;;;4.39;100.00
29909;BME280;36247;51.952;6.146;2023-11-22T09:25:26;102997.53;;;4.49;100.00
29909;BME280;36247;51.952;6.146;2023-11-22T09:27:57;103012.16;;;4.10;100.00
29909;BME280;36247;51.952;6.146;2023-11-22T09:30:29;103011.81;;;4.40;100.00
29909;BME280;36247;51.952;6.146;2023-11-22T09:33:00;103004.50;;;4.48;100.00
29909;BME280;36247;51.952;6.146;2023-11-22T09:35:27;103006.78;;;4.44;100.00
29909;BME280;36247;51.952;6.146;2023-11-22T09:37:55;103015.00;;;4.60;100.00
29909;BME280;36247;51.952;6.146;2023-11-22T09:40:24;103006.59;;;4.77;100.00
29909;BME280;36247;51.952;6.146;2023-11-22T09:42:52;103003.06;;;4.77;100.00
29909;BME280;36247;51.952;6.146;2023-11-22T09:45:19;103000.25;;;5.11;100.00
29909;BME280;36247;51.952;6.146;2023-11-22T09:47:45;102996.94;;;5.14;100.00
29909;BME280;36247;51.952;6.146;2023-11-22T09:53:10;103006.94;;;5.44;100.00
29909;BME280;36247;51.952;6.146;2023-11-22T09:55:41;103003.56;;;5.59;100.00
29909;BME280;36247;51.952;6.146;2023-11-22T09:58:10;103005.00;;;5.42;100.00
29909;BME280;36247;51.952;6.146;2023-11-22T10:00:37;103004.00;;;5.40;100.00
29909;BME280;36247;51.952;6.146;2023-11-22T10:03:04;102994.97;;;5.61;100.00
29909;BME280;36247;51.952;6.146;2023-11-22T10:05:29;102999.09;;;5.58;100.00
29909;BME280;36247;51.952;6.146;2023-11-22T10:07:55;102997.47;;;5.46;100.00
29909;BME280;36247;51.952;6.146;2023-11-22T10:10:22;102999.00;;;5.56;100.00
29909;BME280;36247;51.952;6.146;2023-11-22T10:12:48;103003.41;;;5.44;100.00
29909;BME280;36247;51.952;6.146;2023-11-22T10:15:16;103002.72;;;5.46;100.00
29909;BME280;36247;51.952;6.146;2023-11-22T10:17:57;103001.63;;;5.56;100.00
29909;BME280;36247;51.952;6.146;2023-11-22T10:20:42;103010.97;;;5.64;100.00
29909;BME280;36247;51.952;6.146;2023-11-22T10:23:12;103020.97;;;5.70;100.00
29909;BME280;36247;51.952;6.146;2023-11-22T10:25:44;103007.00;;;5.58;100.00
29909;BME280;36247;51.952;6.146;2023-11-22T10:28:14;103007.78;;;5.43;100.00
29909;BME280;36247;51.952;6.146;2023-11-22T10:30:40;103013.66;;;5.53;100.00
29909;BME280;36247;51.952;6.146;2023-11-22T10:33:06;103001.38;;;5.78;100.00
29909;BME280;36247;51.952;6.146;2023-11-22T10:35:31;102998.72;;;6.04;100.00
29909;BME280;36247;51.952;6.146;2023-11-22T10:37:59;102995.31;;;5.79;100.00
29909;BME280;36247;51.952;6.146;2023-11-22T10:40:28;102998.25;;;6.23;100.00
29909;BME280;36247;51.952;6.146;2023-11-22T10:42:56;102978.06;;;6.50;100.00
29909;BME280;36247;51.952;6.146;2023-11-22T10:45:22;102971.66;;;6.60;100.00
29909;BME280;36247;51.952;6.146;2023-11-22T10:47:49;102974.66;;;6.38;100.00
29909;BME280;36247;51.952;6.146;2023-11-22T10:50:15;102958.13;;;6.40;100.00
29909;BME280;36247;51.952;6.146;2023-11-22T10:52:42;102945.66;;;6.93;100.00
29909;BME280;36247;51.952;6.146;2023-11-22T10:55:12;102937.78;;;6.51;100.00
29909;BME280;36247;51.952;6.146;2023-11-22T10:57:45;102942.31;;;6.40;100.00
29909;BME280;36247;51.952;6.146;2023-11-22T11:00:14;102944.78;;;6.24;100.00
29909;BME280;36247;51.952;6.146;2023-11-22T11:02:44;102941.06;;;6.62;100.00
29909;BME280;36247;51.952;6.146;2023-11-22T11:05:21;102935.53;;;6.44;100.00
29909;BME280;36247;51.952;6.146;2023-11-22T11:08:11;102935.19;;;6.66;100.00
29909;BME280;36247;51.952;6.146;2023-11-22T11:10:40;102943.06;;;6.24;100.00
29909;BME280;36247;51.952;6.146;2023-11-22T11:13:09;102926.69;;;6.57;100.00
29909;BME280;36247;51.952;6.146;2023-11-22T11:15:37;102926.56;;;6.68;100.00
29909;BME280;36247;51.952;6.146;2023-11-22T11:18:07;102932.03;;;7.00;100.00
29909;BME280;36247;51.952;6.146;2023-11-22T11:20:49;102940.03;;;6.73;100.00
29909;BME280;36247;51.952;6.146;2023-11-22T11:23:23;102942.09;;;6.92;100.00
29909;BME280;36247;51.952;6.146;2023-11-22T11:25:57;102939.63;;;7.23;100.00
29909;BME280;36247;51.952;6.146;2023-11-22T11:28:23;102927.41;;;7.39;100.00
29909;BME280;36247;51.952;6.146;2023-11-22T11:30:56;102912.22;;;7.80;100.00
29909;BME280;36247;51.952;6.146;2023-11-22T11:33:33;102894.09;;;7.71;100.00
29909;BME280;36247;51.952;6.146;2023-11-22T11:36:01;102871.78;;;7.81;100.00
29909;BME280;36247;51.952;6.146;2023-11-22T11:38:32;102867.22;;;7.93;100.00
29909;BME280;36247;51.952;6.146;2023-11-22T11:41:08;102838.41;;;7.81;100.00
29909;BME280;36247;51.952;6.146;2023-11-22T11:43:46;102840.19;;;7.82;100.00
29909;BME280;36247;51.952;6.146;2023-11-22T11:46:14;102845.06;;;7.15;100.00
29909;BME280;36247;51.952;6.146;2023-11-22T11:48:50;102835.06;;;6.79;100.00
29909;BME280;36247;51.952;6.146;2023-11-22T11:51:23;102825.81;;;7.31;100.00
29909;BME280;36247;51.952;6.146;2023-11-22T11:53:48;102810.31;;;7.67;100.00
29909;BME280;36247;51.952;6.146;2023-11-22T11:56:15;102799.97;;;7.55;100.00
29909;BME280;36247;51.952;6.146;2023-11-22T11:58:42;102812.41;;;7.72;100.00
29909;BME280;36247;51.952;6.146;2023-11-22T12:01:17;102809.00;;;7.90;100.00
29909;BME280;36247;51.952;6.146;2023-11-22T12:03:45;102815.97;;;7.43;100.00
29909;BME280;36247;51.952;6.146;2023-11-22T12:06:15;102814.50;;;8.26;100.00
29909;BME280;36247;51.952;6.146;2023-11-22T12:08:45;102810.13;;;7.64;100.00
29909;BME280;36247;51.952;6.146;2023-11-22T12:11:13;102813.00;;;7.37;100.00
29909;BME280;36247;51.952;6.146;2023-11-22T12:13:42;102798.19;;;7.39;100.00
29909;BME280;36247;51.952;6.146;2023-11-22T12:16:16;102783.72;;;7.79;100.00
29909;BME280;36247;51.952;6.146;2023-11-22T12:18:47;102793.47;;;7.33;100.00
29909;BME280;36247;51.952;6.146;2023-11-22T12:21:14;102800.16;;;7.43;100.00
29909;BME280;36247;51.952;6.146;2023-11-22T12:23:41;102803.16;;;7.34;100.00
29909;BME280;36247;51.952;6.146;2023-11-22T12:26:16;102812.19;;;7.23;100.00
29909;BME280;36247;51.952;6.146;2023-11-22T12:28:46;102822.38;;;7.47;100.00
29909;BME280;36247;51.952;6.146;2023-11-22T12:31:14;102819.56;;;7.29;100.00
29909;BME280;36247;51.952;6.146;2023-11-22T12:33:41;102809.50;;;7.68;100.00
29909;BME280;36247;51.952;6.146;2023-11-22T12:36:08;102807.91;;;7.10;100.00
29909;BME280;36247;51.952;6.146;2023-11-22T12:38:36;102793.72;;;7.38;100.00
29909;BME280;36247;51.952;6.146;2023-11-22T12:41:02;102813.34;;;7.43;100.00
29909;BME280;36247;51.952;6.146;2023-11-22T12:43:31;102806.47;;;7.76;100.00
29909;BME280;36247;51.952;6.146;2023-11-22T12:46:01;102810.69;;;7.58;100.00
29909;BME280;36247;51.952;6.146;2023-11-22T12:48:27;102815.44;;;7.34;100.00
29909;BME280;36247;51.952;6.146;2023-11-22T12:50:56;102807.28;;;7.29;100.00
29909;BME280;36247;51.952;6.146;2023-11-22T12:53:22;102799.78;;;7.52;100.00